Flight Track Log - Related Links

Times and Time Zones

All times are in EDT time to prevent confusion due to time zone crossing. See the TAM3899 flight status page for this flight to view local times or setup timezone preferences in your user account.

Time Position Orientation Groundspeed Altitude Reporting Facility
EDT Latitude Longitude Course Direction KTS MPH feet Rate Location/Type
Sun 07:14:00 PM -22.8068 -47.4744 138° Southeast  Level Estimated
Sun 07:15:00 PM -22.8750 -47.4068 138° Southeast  Level Estimated
Sun 07:16:00 PM -22.9432 -47.3391 138° Southeast  Level Estimated
Sun 07:17:00 PM -23.0114 -47.2714 138° Southeast  Level Estimated
Sun 07:18:00 PM -23.0795 -47.2035 138° Southeast  Level Estimated
Sun 07:19:00 PM -23.1476 -47.1357 138° Southeast  Level Estimated
Sun 07:20:00 PM -23.2157 -47.0677 137° Southeast  Level Estimated
Sun 07:21:00 PM -23.2837 -46.9997 137° Southeast  Level Estimated
Sun 07:22:00 PM -23.3518 -46.9316 137° Southeast  Level Estimated
Sun 07:23:00 PM -23.4198 -46.8634 137° Southeast  Level Estimated
Sun 07:24:00 PM -23.4877 -46.7952 137° Southeast  Level Estimated
Sun 07:25:00 PM -23.5556 -46.7269 137° Southeast  Level Estimated
Sun 07:26:00 PM -23.6235 -46.6586 137° Southeast  Level Estimated
Sun 07:27:00 PM -23.6267 -46.6554 137° Southeast  Level Estimated
Sun 07:28:00 PM -23.6267 -46.6554 114° Southeast  Level Estimated
Sun 07:29:00 PM -23.6267 -46.6554 114° Southeast  Level Estimated
Sun 07:30:00 PM -23.6267 -46.6554 114° Southeast  Level Estimated
Sun 07:31:00 PM -23.6267 -46.6554 114° Southeast  Level Estimated
Sun 07:32:00 PM -23.6267 -46.6554 114° Southeast  Level Estimated
Sun 07:33:00 PM -23.6267 -46.6554 114° Southeast  Level Estimated
Sun 07:34:00 PM -23.6267 -46.6554 114° Southeast  Level Estimated
Sun 07:35:00 PM -23.6267 -46.6554 114° Southeast  Level Estimated
Sun 07:36:00 PM -23.6267 -46.6554 114° Southeast  Level Estimated
Sun 07:37:00 PM -23.6267 -46.6554 114° Southeast  Level Estimated
Sun 07:38:00 PM -23.6267 -46.6554 114° Southeast  Level Estimated
Sun 07:39:00 PM -23.6267 -46.6554 114° Southeast  Level Estimated
Sun 07:40:00 PM -23.6267 -46.6554 114° Southeast  Level Estimated
Sun 07:41:00 PM -23.6267 -46.6554 114° Southeast  Level Estimated
Sun 07:42:00 PM -23.6267 -46.6554 114° Southeast  Level Estimated

Login

Don't have an account? Register now (free) for customized features, flight alerts, and more!